createdAt,value
2023-02-16T00:21:26.422Z,5.30
2023-02-16T00:53:20.644Z,5.00
2023-02-16T01:12:22.331Z,4.80
2023-02-16T01:23:03.745Z,4.70
2023-02-16T01:28:54.143Z,4.70
2023-02-16T01:30:16.413Z,4.60
2023-02-16T01:33:09.233Z,4.50
2023-02-16T01:35:46.885Z,4.50
2023-02-16T01:43:27.452Z,4.50
2023-02-16T01:49:43.353Z,4.40
2023-02-16T01:52:37.131Z,4.30
2023-02-16T02:17:59.159Z,4.10
2023-02-16T07:45:13.803Z,6.30
2023-02-16T07:47:52.735Z,6.30
2023-02-16T07:50:27.482Z,6.30
2023-02-16T07:52:55.149Z,6.40
2023-02-16T07:55:33.731Z,6.40
2023-02-16T07:58:30.068Z,6.50
2023-02-16T08:02:20.596Z,6.60
2023-02-16T08:04:54.399Z,6.60
2023-02-16T08:07:35.514Z,6.70
2023-02-16T08:10:13.141Z,6.90
2023-02-16T08:12:40.480Z,6.90
2023-02-16T08:15:11.904Z,7.00
2023-02-16T08:17:55.761Z,7.10
2023-02-16T08:21:01.090Z,7.10
2023-02-16T08:24:20.097Z,7.20
2023-02-16T08:31:52.688Z,7.30
2023-02-16T08:35:20.535Z,7.20
2023-02-16T08:38:19.606Z,7.20
2023-02-16T08:41:00.260Z,7.10
2023-02-16T08:43:27.520Z,7.20
2023-02-16T08:46:03.608Z,7.20
2023-02-16T08:48:36.566Z,7.20
2023-02-16T08:51:06.848Z,7.20
2023-02-16T08:53:36.419Z,7.20
2023-02-16T08:56:17.684Z,7.20
2023-02-16T08:58:48.772Z,7.30
2023-02-16T09:01:24.103Z,7.30
2023-02-16T09:54:47.863Z,7.60
2023-02-16T09:57:43.961Z,7.60
2023-02-16T10:00:29.625Z,7.60
2023-02-16T10:03:27.787Z,7.60
2023-02-16T10:06:21.069Z,7.60
2023-02-16T10:09:08.794Z,7.60
2023-02-16T10:12:10.400Z,7.70
2023-02-16T10:14:52.005Z,7.60
2023-02-16T10:17:30.820Z,7.70
2023-02-16T10:20:20.570Z,7.60
2023-02-16T10:23:15.179Z,7.70
2023-02-16T10:26:04.853Z,7.70
2023-02-16T10:28:52.291Z,7.70
2023-02-16T10:31:34.209Z,7.80
2023-02-16T10:34:05.625Z,7.80
2023-02-16T10:46:40.694Z,7.80
2023-02-16T10:49:24.608Z,7.70
2023-02-16T10:52:06.335Z,7.70
2023-02-16T10:54:50.880Z,7.60
2023-02-16T10:57:43.201Z,7.70
2023-02-16T11:00:29.190Z,7.70
2023-02-16T11:03:05.455Z,7.60
2023-02-16T11:05:54.809Z,7.60
2023-02-16T11:09:03.079Z,7.60
2023-02-16T11:11:56.884Z,7.60
2023-02-16T11:15:10.873Z,7.50
2023-02-16T11:21:59.046Z,7.50
2023-02-16T11:24:39.971Z,7.50
2023-02-16T11:27:50.164Z,7.50
2023-02-16T11:30:29.584Z,7.50
2023-02-16T11:33:07.156Z,7.50
2023-02-16T11:51:59.988Z,7.70
2023-02-16T11:54:27.900Z,7.70
2023-02-16T11:57:11.240Z,7.70
2023-02-16T11:59:39.918Z,7.80
2023-02-16T12:02:40.737Z,7.80
2023-02-16T12:05:24.480Z,7.80
2023-02-16T12:08:14.777Z,7.90
2023-02-16T12:11:45.238Z,8.00
2023-02-16T12:14:36.512Z,8.10
2023-02-16T12:21:40.575Z,8.30
2023-02-16T12:24:48.729Z,8.30
2023-02-16T12:28:00.741Z,8.30
2023-02-16T12:30:52.997Z,8.40
2023-02-16T12:33:49.922Z,8.40
2023-02-16T12:36:28.996Z,8.60
2023-02-16T12:39:37.770Z,8.70
2023-02-16T12:43:18.566Z,8.80
2023-02-16T12:45:47.608Z,8.70
2023-02-16T12:48:45.338Z,8.70
2023-02-16T12:51:19.465Z,8.80
2023-02-16T12:55:53.560Z,8.80
2023-02-16T12:58:02.767Z,9.00
2023-02-16T13:05:44.068Z,9.20
2023-02-16T13:08:39.322Z,9.30
2023-02-16T13:11:16.876Z,9.30
2023-02-16T13:13:46.812Z,9.30
2023-02-16T13:16:44.370Z,9.30
2023-02-16T13:19:21.695Z,9.40
2023-02-16T13:22:15.944Z,9.50
2023-02-16T13:25:16.357Z,9.60
2023-02-16T13:28:23.964Z,9.60
2023-02-16T13:31:04.870Z,9.60
2023-02-16T13:34:08.599Z,9.70
2023-02-16T13:36:56.980Z,9.80
2023-02-16T13:39:47.180Z,9.80
2023-02-16T13:43:30.732Z,9.90
2023-02-16T13:46:35.551Z,10.00
2023-02-16T13:51:56.121Z,10.00
2023-02-16T13:54:34.527Z,10.10
2023-02-16T13:57:04.668Z,10.10
2023-02-16T13:59:36.701Z,10.20
2023-02-16T14:02:22.784Z,10.30
2023-02-16T14:04:58.870Z,10.30
2023-02-16T14:07:35.987Z,10.40
2023-02-16T14:10:05.379Z,10.50
2023-02-16T14:12:39.274Z,10.50
2023-02-16T14:15:28.358Z,10.60
2023-02-16T14:17:58.952Z,10.60
2023-02-16T14:20:31.817Z,10.50
2023-02-16T14:23:27.610Z,10.60
2023-02-16T14:26:03.297Z,10.60
2023-02-16T14:28:33.814Z,10.60
2023-02-16T14:35:38.495Z,10.60
2023-02-16T14:38:24.964Z,10.60
2023-02-16T14:41:06.840Z,10.60
2023-02-16T14:43:40.471Z,10.70
2023-02-16T14:46:45.556Z,10.70
2023-02-16T14:49:49.613Z,10.70
2023-02-16T14:53:01.896Z,10.70
2023-02-16T15:14:43.013Z,10.60
2023-02-16T15:17:27.590Z,10.60
2023-02-16T15:25:06.600Z,10.60
2023-02-16T15:28:12.699Z,10.60
2023-02-16T15:30:41.954Z,10.70
2023-02-16T15:33:48.358Z,10.70
2023-02-16T15:36:37.501Z,10.80
2023-02-16T15:39:09.788Z,10.80
2023-02-16T15:41:46.991Z,10.80
2023-02-16T15:44:41.493Z,10.80
2023-02-16T15:47:27.218Z,10.80
2023-02-16T15:49:58.295Z,10.80
2023-02-16T15:52:35.936Z,10.70
2023-02-16T16:03:01.416Z,10.70
2023-02-16T16:06:00.690Z,10.70
2023-02-16T16:08:31.189Z,10.70
2023-02-16T16:11:10.330Z,10.70
2023-02-16T16:13:38.392Z,10.60
2023-02-16T16:16:43.815Z,10.60
2023-02-16T16:20:02.644Z,10.60
2023-02-16T16:22:44.626Z,10.50
2023-02-16T16:25:37.065Z,10.50
2023-02-16T16:28:07.764Z,10.50
2023-02-16T16:40:21.991Z,10.40
2023-02-16T16:43:09.265Z,10.30
2023-02-16T16:46:04.455Z,10.20
2023-02-16T16:48:39.419Z,10.10
2023-02-16T16:51:23.125Z,10.10
2023-02-16T16:54:07.638Z,10.00
2023-02-16T16:57:38.054Z,10.00
2023-02-16T17:00:14.615Z,9.90
2023-02-16T17:02:41.733Z,9.90
2023-02-16T17:05:08.907Z,9.80
2023-02-16T17:15:37.240Z,9.80
2023-02-16T17:18:06.048Z,9.80
2023-02-16T17:20:33.327Z,9.70
2023-02-16T17:23:09.190Z,9.70
2023-02-16T17:25:38.246Z,9.70
2023-02-16T17:28:22.652Z,9.70
2023-02-16T17:31:00.635Z,9.70
2023-02-16T17:34:07.268Z,9.70
2023-02-16T17:36:47.239Z,9.70
2023-02-16T17:39:22.250Z,9.70
2023-02-16T17:42:02.095Z,9.70
2023-02-16T17:44:36.873Z,9.70
2023-02-16T17:47:04.551Z,9.70
2023-02-16T17:49:31.650Z,9.70
2023-02-16T17:52:00.979Z,9.70
2023-02-16T17:54:28.400Z,9.70
2023-02-16T17:57:05.204Z,9.70
2023-02-16T17:59:46.809Z,9.70
2023-02-16T18:02:14.144Z,9.70
2023-02-16T18:04:41.435Z,9.80
2023-02-16T18:07:16.185Z,9.70
2023-02-16T18:09:43.275Z,9.80
2023-02-16T18:12:10.327Z,9.70
2023-02-16T18:14:37.588Z,9.70
2023-02-16T18:17:04.938Z,9.80
2023-02-16T18:19:32.074Z,9.80
2023-02-16T18:21:59.883Z,9.80
2023-02-16T18:24:30.217Z,9.80
2023-02-16T18:27:01.885Z,9.80
2023-02-16T18:29:32.256Z,9.80
2023-02-16T18:32:05.915Z,9.80
2023-02-16T18:34:35.039Z,9.80
2023-02-16T18:37:05.522Z,9.70
2023-02-16T18:39:33.018Z,9.80
2023-02-16T18:42:00.294Z,9.70
2023-02-16T18:44:29.917Z,9.80
2023-02-16T18:50:22.963Z,9.80
2023-02-16T18:55:59.162Z,9.80
2023-02-16T18:56:53.488Z,9.80
2023-02-16T18:59:42.241Z,9.80
2023-02-16T19:06:39.644Z,9.80
2023-02-16T19:09:07.024Z,9.80
2023-02-16T19:11:44.500Z,9.80
2023-02-16T19:14:12.456Z,9.80
2023-02-16T19:16:42.654Z,9.80
2023-02-16T19:19:15.386Z,9.80
2023-02-16T19:21:53.594Z,9.80
2023-02-16T19:24:41.095Z,9.80
2023-02-16T19:27:08.320Z,9.80
2023-02-16T19:29:35.432Z,9.80
2023-02-16T19:32:02.473Z,9.80
2023-02-16T19:34:29.615Z,9.80
2023-02-16T19:37:15.285Z,9.80
2023-02-16T19:40:00.839Z,9.80
2023-02-16T19:46:16.377Z,9.80
2023-02-16T19:51:39.349Z,9.80
2023-02-16T19:54:06.581Z,9.80
2023-02-16T19:57:00.121Z,9.80
2023-02-16T19:59:27.537Z,9.80
2023-02-16T20:01:54.661Z,9.80
2023-02-16T20:04:24.865Z,9.80
2023-02-16T20:06:54.588Z,9.80
2023-02-16T20:09:22.581Z,9.80
2023-02-16T20:11:50.493Z,9.80
2023-02-16T20:14:17.942Z,9.80
2023-02-16T20:16:48.850Z,9.80
2023-02-16T20:19:50.249Z,9.80
2023-02-16T20:22:20.323Z,9.80
2023-02-16T20:24:47.447Z,9.80
2023-02-16T20:27:14.806Z,9.80
2023-02-16T20:29:53.334Z,9.80
2023-02-16T20:32:24.890Z,9.80
2023-02-16T20:34:54.015Z,9.80
2023-02-16T20:37:28.014Z,9.80
2023-02-16T20:40:04.393Z,9.80
2023-02-16T20:42:31.404Z,9.80
2023-02-16T20:45:22.490Z,9.80
2023-02-16T20:47:52.794Z,9.80
2023-02-16T20:50:20.143Z,9.80
2023-02-16T20:52:52.353Z,9.80
2023-02-16T20:55:19.739Z,9.80
2023-02-16T20:58:07.174Z,9.80
2023-02-16T21:00:45.205Z,9.80
2023-02-16T21:03:38.447Z,9.90
2023-02-16T21:06:23.183Z,9.80
2023-02-16T21:08:50.967Z,9.80
2023-02-16T21:12:51.099Z,9.80
2023-02-16T21:22:03.270Z,9.90
2023-02-16T21:24:48.337Z,9.80
2023-02-16T21:27:39.192Z,9.90
2023-02-16T21:30:44.803Z,9.90
2023-02-16T21:37:12.207Z,9.90
2023-02-16T21:53:57.821Z,9.90
2023-02-16T21:57:08.187Z,9.90
2023-02-16T22:04:34.838Z,9.90
2023-02-16T22:07:07.848Z,10.00
2023-02-16T22:09:34.960Z,9.90
2023-02-16T22:12:02.229Z,10.00
2023-02-16T22:14:29.277Z,10.00
2023-02-16T22:16:56.537Z,10.00
2023-02-16T22:20:01.611Z,10.00
2023-02-16T22:27:07.607Z,10.00
2023-02-16T22:35:07.361Z,10.00
2023-02-16T22:42:17.002Z,10.10
2023-02-16T22:44:46.677Z,10.10
2023-02-16T22:48:08.905Z,10.10
2023-02-16T22:51:01.331Z,10.10
2023-02-16T22:53:27.103Z,10.10
2023-02-16T22:56:29.507Z,10.10
2023-02-16T22:58:58.975Z,10.10
2023-02-16T23:01:42.934Z,10.20
2023-02-16T23:04:17.577Z,10.20
2023-02-16T23:06:45.400Z,10.20
2023-02-16T23:09:23.197Z,10.20
2023-02-16T23:11:52.145Z,10.20
2023-02-16T23:14:20.891Z,10.20
2023-02-16T23:17:06.475Z,10.20
2023-02-16T23:19:36.611Z,10.20
2023-02-16T23:22:03.657Z,10.20
2023-02-16T23:24:31.815Z,10.20
2023-02-16T23:27:26.563Z,10.20
2023-02-16T23:29:56.935Z,10.30
2023-02-16T23:32:59.453Z,10.20
2023-02-16T23:35:51.703Z,10.20
2023-02-16T23:38:19.525Z,10.20
2023-02-16T23:41:10.098Z,10.20
2023-02-16T23:43:43.912Z,10.20
2023-02-16T23:46:12.291Z,10.20
2023-02-16T23:48:39.525Z,10.20
2023-02-16T23:51:11.999Z,10.20
2023-02-16T23:53:41.929Z,10.30
2023-02-16T23:56:23.012Z,10.20
2023-02-16T23:58:51.987Z,10.30
